Time,TemperatureF,DewpointF,PressureIn,WindDirection,WindDirectionDegrees,WindSpeedMPH,WindSpeedGustMPH,Humidity,HourlyPrecipIn,Conditions,Clouds,dailyrainin,SoftwareType,DateUTC
2013-04-26 00:14:00,46.6,27.7,30.38,North,-999,-999.0,-999.0,47,0.00,n/a,n/a,-99.99,Henriksen +1-Wire,2013-04-26 04:14:00,
2013-04-26 00:29:00,46.3,28.1,30.38,North,-999,-999.0,-999.0,48,0.00,n/a,n/a,-99.99,Henriksen +1-Wire,2013-04-26 04:29:00,
2013-04-26 00:44:00,45.5,28.0,30.38,North,-999,-999.0,-999.0,50,0.00,n/a,n/a,-99.99,Henriksen +1-Wire,2013-04-26 04:44:00,
2013-04-26 00:59:00,45.3,28.3,30.38,North,-999,-999.0,-999.0,51,0.00,n/a,n/a,-99.99,Henriksen +1-Wire,2013-04-26 04:59:00,
2013-04-26 01:14:00,44.9,28.2,30.38,North,-999,-999.0,-999.0,51,0.00,n/a,n/a,-99.99,Henriksen +1-Wire,2013-04-26 05:14:00,
2013-04-26 01:29:00,44.3,28.0,30.38,North,-999,-999.0,-999.0,52,0.00,n/a,n/a,-99.99,Henriksen +1-Wire,2013-04-26 05:29:00,
2013-04-26 01:44:00,43.9,28.2,30.38,North,-999,-999.0,-999.0,53,0.00,n/a,n/a,-99.99,Henriksen +1-Wire,2013-04-26 05:44:00,
2013-04-26 01:59:00,43.8,28.3,30.38,North,-999,-999.0,-999.0,53,0.00,n/a,n/a,-99.99,Henriksen +1-Wire,2013-04-26 05:59:00,
2013-04-26 02:14:00,43.6,28.1,30.38,North,-999,-999.0,-999.0,54,0.00,n/a,n/a,-99.99,Henriksen +1-Wire,2013-04-26 06:14:00,
2013-04-26 02:29:00,43.1,28.0,30.38,North,-999,-999.0,-999.0,54,0.00,n/a,n/a,-99.99,Henriksen +1-Wire,2013-04-26 06:29:00,
2013-04-26 02:44:00,42.7,28.0,30.37,North,-999,-999.0,-999.0,55,0.00,n/a,n/a,-99.99,Henriksen +1-Wire,2013-04-26 06:44:00,
2013-04-26 02:59:00,42.3,27.9,30.38,North,-999,-999.0,-999.0,56,0.00,n/a,n/a,-99.99,Henriksen +1-Wire,2013-04-26 06:59:00,
2013-04-26 03:14:00,42.0,27.8,30.37,North,-999,-999.0,-999.0,56,0.00,n/a,n/a,-99.99,Henriksen +1-Wire,2013-04-26 07:14:00,
2013-04-26 03:29:00,42.1,27.9,30.37,North,-999,-999.0,-999.0,56,0.00,n/a,n/a,-99.99,Henriksen +1-Wire,2013-04-26 07:29:00,
2013-04-26 03:44:00,41.6,27.6,30.37,North,-999,-999.0,-999.0,57,0.00,n/a,n/a,-99.99,Henriksen +1-Wire,2013-04-26 07:44:00,
2013-04-26 03:59:00,41.2,27.6,30.37,North,-999,-999.0,-999.0,58,0.00,n/a,n/a,-99.99,Henriksen +1-Wire,2013-04-26 07:59:00,
2013-04-26 04:14:00,41.0,27.7,30.37,North,-999,-999.0,-999.0,58,0.00,n/a,n/a,-99.99,Henriksen +1-Wire,2013-04-26 08:14:00,
2013-04-26 04:29:00,40.7,27.5,30.38,North,-999,-999.0,-999.0,59,0.00,n/a,n/a,-99.99,Henriksen +1-Wire,2013-04-26 08:29:00,
2013-04-26 04:44:00,40.3,27.3,30.38,North,-999,-999.0,-999.0,59,0.00,n/a,n/a,-99.99,Henriksen +1-Wire,2013-04-26 08:44:00,
2013-04-26 04:59:00,40.0,27.4,30.38,North,-999,-999.0,-999.0,60,0.00,n/a,n/a,-99.99,Henriksen +1-Wire,2013-04-26 08:59:00,
2013-04-26 05:14:00,39.8,27.3,30.38,North,-999,-999.0,-999.0,60,0.00,n/a,n/a,-99.99,Henriksen +1-Wire,2013-04-26 09:14:00,
2013-04-26 05:29:00,39.7,27.4,30.38,North,-999,-999.0,-999.0,61,0.00,n/a,n/a,-99.99,Henriksen +1-Wire,2013-04-26 09:29:00,
2013-04-26 05:44:00,39.5,27.3,30.38,North,-999,-999.0,-999.0,61,0.00,n/a,n/a,-99.99,Henriksen +1-Wire,2013-04-26 09:44:00,
2013-04-26 05:59:00,39.3,27.0,30.38,North,-999,-999.0,-999.0,61,0.00,n/a,n/a,-99.99,Henriksen +1-Wire,2013-04-26 09:59:00,
2013-04-26 06:14:00,38.8,26.9,30.39,North,-999,-999.0,-999.0,61,0.00,n/a,n/a,-99.99,Henriksen +1-Wire,2013-04-26 10:14:00,
2013-04-26 06:29:00,38.8,27.2,30.39,North,-999,-999.0,-999.0,62,0.00,n/a,n/a,-99.99,Henriksen +1-Wire,2013-04-26 10:29:00,
2013-04-26 06:44:00,38.5,27.0,30.40,North,-999,-999.0,-999.0,62,0.00,n/a,n/a,-99.99,Henriksen +1-Wire,2013-04-26 10:44:00,
2013-04-26 06:59:00,38.5,27.1,30.41,North,-999,-999.0,-999.0,63,0.00,n/a,n/a,-99.99,Henriksen +1-Wire,2013-04-26 10:59:00,
2013-04-26 07:14:00,38.5,27.2,30.42,North,-999,-999.0,-999.0,63,0.00,n/a,n/a,-99.99,Henriksen +1-Wire,2013-04-26 11:14:00,
2013-04-26 07:29:00,38.5,27.2,30.42,North,-999,-999.0,-999.0,63,0.00,n/a,n/a,-99.99,Henriksen +1-Wire,2013-04-26 11:29:00,
2013-04-26 07:44:00,39.1,27.8,30.42,North,-999,-999.0,-999.0,63,0.00,n/a,n/a,-99.99,Henriksen +1-Wire,2013-04-26 11:44:00,
2013-04-26 07:59:00,39.4,28.3,30.43,North,-999,-999.0,-999.0,64,0.00,n/a,n/a,-99.99,Henriksen +1-Wire,2013-04-26 11:59:00,
2013-04-26 08:14:00,40.6,29.3,30.43,North,-999,-999.0,-999.0,63,0.00,n/a,n/a,-99.99,Henriksen +1-Wire,2013-04-26 12:14:00,
2013-04-26 08:29:00,41.5,30.1,30.44,North,-999,-999.0,-999.0,63,0.00,n/a,n/a,-99.99,Henriksen +1-Wire,2013-04-26 12:29:00,
2013-04-26 08:44:00,42.9,31.2,30.45,North,-999,-999.0,-999.0,62,0.00,n/a,n/a,-99.99,Henriksen +1-Wire,2013-04-26 12:44:00,
2013-04-26 08:59:00,44.5,32.2,30.45,North,-999,-999.0,-999.0,61,0.00,n/a,n/a,-99.99,Henriksen +1-Wire,2013-04-26 12:59:00,
2013-04-26 09:14:00,46.0,33.0,30.45,North,-999,-999.0,-999.0,60,0.00,n/a,n/a,-99.99,Henriksen +1-Wire,2013-04-26 13:14:00,
2013-04-26 09:29:00,47.1,33.3,30.45,North,-999,-999.0,-999.0,58,0.00,n/a,n/a,-99.99,Henriksen +1-Wire,2013-04-26 13:29:00,
2013-04-26 09:44:00,48.4,33.4,30.45,North,-999,-999.0,-999.0,55,0.00,n/a,n/a,-99.99,Henriksen +1-Wire,2013-04-26 13:44:00,
2013-04-26 09:59:00,49.7,33.9,30.45,North,-999,-999.0,-999.0,54,0.00,n/a,n/a,-99.99,Henriksen +1-Wire,2013-04-26 13:59:00,
2013-04-26 10:14:00,51.4,34.9,30.45,North,-999,-999.0,-999.0,52,0.00,n/a,n/a,-99.99,Henriksen +1-Wire,2013-04-26 14:14:00,
2013-04-26 10:29:00,53.4,35.8,30.45,North,-999,-999.0,-999.0,51,0.00,n/a,n/a,-99.99,Henriksen +1-Wire,2013-04-26 14:29:00,
2013-04-26 10:44:00,55.1,36.2,30.45,North,-999,-999.0,-999.0,48,0.00,n/a,n/a,-99.99,Henriksen +1-Wire,2013-04-26 14:44:00,
2013-04-26 10:59:00,56.2,35.8,30.45,North,-999,-999.0,-999.0,46,0.00,n/a,n/a,-99.99,Henriksen +1-Wire,2013-04-26 14:59:00,
2013-04-26 11:14:00,57.8,35.6,30.45,North,-999,-999.0,-999.0,43,0.00,n/a,n/a,-99.99,Henriksen +1-Wire,2013-04-26 15:14:00,
2013-04-26 11:29:00,60.5,35.9,30.46,North,-999,-999.0,-999.0,39,0.00,n/a,n/a,-99.99,Henriksen +1-Wire,2013-04-26 15:29:00,
2013-04-26 11:44:00,63.2,36.5,30.45,North,-999,-999.0,-999.0,36,0.00,n/a,n/a,-99.99,Henriksen +1-Wire,2013-04-26 15:44:00,
2013-04-26 11:59:00,64.5,35.4,30.45,North,-999,-999.0,-999.0,33,0.00,n/a,n/a,-99.99,Henriksen +1-Wire,2013-04-26 15:59:00,
2013-04-26 12:14:00,65.1,34.8,30.45,North,-999,-999.0,-999.0,32,0.00,n/a,n/a,-99.99,Henriksen +1-Wire,2013-04-26 16:14:00,
2013-04-26 12:29:00,65.7,35.1,30.45,North,-999,-999.0,-999.0,31,0.00,n/a,n/a,-99.99,Henriksen +1-Wire,2013-04-26 16:29:00,
2013-04-26 12:44:00,66.0,35.4,30.44,North,-999,-999.0,-999.0,31,0.00,n/a,n/a,-99.99,Henriksen +1-Wire,2013-04-26 16:44:00,
2013-04-26 12:59:00,65.9,34.9,30.44,North,-999,-999.0,-999.0,31,0.00,n/a,n/a,-99.99,Henriksen +1-Wire,2013-04-26 16:59:00,
2013-04-26 13:14:00,65.3,33.6,30.44,North,-999,-999.0,-999.0,30,0.00,n/a,n/a,-99.99,Henriksen +1-Wire,2013-04-26 17:14:00,
2013-04-26 13:29:00,65.0,33.5,30.44,North,-999,-999.0,-999.0,30,0.00,n/a,n/a,-99.99,Henriksen +1-Wire,2013-04-26 17:29:00,
2013-04-26 13:44:00,65.5,34.1,30.44,North,-999,-999.0,-999.0,30,0.00,n/a,n/a,-99.99,Henriksen +1-Wire,2013-04-26 17:44:00,
2013-04-26 13:59:00,65.4,33.9,30.43,North,-999,-999.0,-999.0,30,0.00,n/a,n/a,-99.99,Henriksen +1-Wire,2013-04-26 17:59:00,
2013-04-26 14:14:00,65.4,33.6,30.43,North,-999,-999.0,-999.0,30,0.00,n/a,n/a,-99.99,Henriksen +1-Wire,2013-04-26 18:14:00,
2013-04-26 14:29:00,65.4,33.5,30.44,North,-999,-999.0,-999.0,30,0.00,n/a,n/a,-99.99,Henriksen +1-Wire,2013-04-26 18:29:00,
2013-04-26 14:44:00,65.6,33.7,30.43,North,-999,-999.0,-999.0,30,0.00,n/a,n/a,-99.99,Henriksen +1-Wire,2013-04-26 18:44:00,
2013-04-26 14:59:00,65.9,34.1,30.42,North,-999,-999.0,-999.0,30,0.00,n/a,n/a,-99.99,Henriksen +1-Wire,2013-04-26 18:59:00,
2013-04-26 15:14:00,65.9,34.1,30.41,North,-999,-999.0,-999.0,30,0.00,n/a,n/a,-99.99,Henriksen +1-Wire,2013-04-26 19:14:00,
2013-04-26 15:29:00,66.0,33.8,30.41,North,-999,-999.0,-999.0,29,0.00,n/a,n/a,-99.99,Henriksen +1-Wire,2013-04-26 19:29:00,
2013-04-26 15:44:00,66.1,34.2,30.40,North,-999,-999.0,-999.0,30,0.00,n/a,n/a,-99.99,Henriksen +1-Wire,2013-04-26 19:44:00,
2013-04-26 15:59:00,65.7,34.3,30.40,North,-999,-999.0,-999.0,30,0.00,n/a,n/a,-99.99,Henriksen +1-Wire,2013-04-26 19:59:00,
2013-04-26 16:14:00,65.6,34.2,30.39,North,-999,-999.0,-999.0,30,0.00,n/a,n/a,-99.99,Henriksen +1-Wire,2013-04-26 20:14:00,
2013-04-26 16:29:00,65.4,34.4,30.39,North,-999,-999.0,-999.0,31,0.00,n/a,n/a,-99.99,Henriksen +1-Wire,2013-04-26 20:29:00,
2013-04-26 16:44:00,65.6,34.4,30.38,North,-999,-999.0,-999.0,31,0.00,n/a,n/a,-99.99,Henriksen +1-Wire,2013-04-26 20:44:00,
2013-04-26 16:59:00,65.6,34.2,30.37,North,-999,-999.0,-999.0,30,0.00,n/a,n/a,-99.99,Henriksen +1-Wire,2013-04-26 20:59:00,
2013-04-26 17:14:00,65.8,34.5,30.37,North,-999,-999.0,-999.0,30,0.00,n/a,n/a,-99.99,Henriksen +1-Wire,2013-04-26 21:14:00,
2013-04-26 17:29:00,65.4,34.5,30.36,North,-999,-999.0,-999.0,31,0.00,n/a,n/a,-99.99,Henriksen +1-Wire,2013-04-26 21:29:00,
2013-04-26 17:44:00,65.0,34.1,30.37,North,-999,-999.0,-999.0,31,0.00,n/a,n/a,-99.99,Henriksen +1-Wire,2013-04-26 21:44:00,
2013-04-26 17:59:00,64.8,34.4,30.38,North,-999,-999.0,-999.0,31,0.00,n/a,n/a,-99.99,Henriksen +1-Wire,2013-04-26 21:59:00,
2013-04-26 18:14:00,64.4,34.1,30.38,North,-999,-999.0,-999.0,32,0.00,n/a,n/a,-99.99,Henriksen +1-Wire,2013-04-26 22:14:00,
2013-04-26 18:29:00,64.2,34.1,30.38,North,-999,-999.0,-999.0,32,0.00,n/a,n/a,-99.99,Henriksen +1-Wire,2013-04-26 22:29:00,
2013-04-26 18:44:00,64.0,34.6,30.38,North,-999,-999.0,-999.0,32,0.00,n/a,n/a,-99.99,Henriksen +1-Wire,2013-04-26 22:44:00,
2013-04-26 18:59:00,63.9,34.9,30.39,North,-999,-999.0,-999.0,33,0.00,n/a,n/a,-99.99,Henriksen +1-Wire,2013-04-26 22:59:00,
2013-04-26 19:14:00,63.5,34.7,30.40,North,-999,-999.0,-999.0,33,0.00,n/a,n/a,-99.99,Henriksen +1-Wire,2013-04-26 23:14:00,
2013-04-26 19:29:00,63.1,34.7,30.41,North,-999,-999.0,-999.0,34,0.00,n/a,n/a,-99.99,Henriksen +1-Wire,2013-04-26 23:29:00,
2013-04-26 19:44:00,62.6,34.9,30.40,North,-999,-999.0,-999.0,35,0.00,n/a,n/a,-99.99,Henriksen +1-Wire,2013-04-26 23:44:00,
2013-04-26 20:14:00,61.5,35.1,30.43,North,-999,-999.0,-999.0,36,0.00,n/a,n/a,-99.99,Henriksen +1-Wire,2013-04-27 00:14:00,
2013-04-26 20:29:00,61.0,35.3,30.42,North,-999,-999.0,-999.0,37,0.00,n/a,n/a,-99.99,Henriksen +1-Wire,2013-04-27 00:29:00,
2013-04-26 20:44:00,60.2,35.5,30.42,North,-999,-999.0,-999.0,39,0.00,n/a,n/a,-99.99,Henriksen +1-Wire,2013-04-27 00:44:00,
2013-04-26 20:59:00,59.6,35.6,30.41,North,-999,-999.0,-999.0,40,0.00,n/a,n/a,-99.99,Henriksen +1-Wire,2013-04-27 00:59:00,
2013-04-26 21:14:00,59.1,35.8,30.41,North,-999,-999.0,-999.0,41,0.00,n/a,n/a,-99.99,Henriksen +1-Wire,2013-04-27 01:14:00,
2013-04-26 21:29:00,58.6,35.9,30.41,North,-999,-999.0,-999.0,42,0.00,n/a,n/a,-99.99,Henriksen +1-Wire,2013-04-27 01:29:00,
2013-04-26 21:44:00,58.4,36.1,30.41,North,-999,-999.0,-999.0,42,0.00,n/a,n/a,-99.99,Henriksen +1-Wire,2013-04-27 01:44:00,
2013-04-26 21:59:00,58.2,36.1,30.40,North,-999,-999.0,-999.0,43,0.00,n/a,n/a,-99.99,Henriksen +1-Wire,2013-04-27 01:59:00,
2013-04-26 22:14:00,57.8,36.1,30.39,North,-999,-999.0,-999.0,43,0.00,n/a,n/a,-99.99,Henriksen +1-Wire,2013-04-27 02:14:00,
2013-04-26 22:29:00,57.3,36.5,30.40,North,-999,-999.0,-999.0,45,0.00,n/a,n/a,-99.99,Henriksen +1-Wire,2013-04-27 02:29:00,
2013-04-26 22:44:00,57.1,36.8,30.40,North,-999,-999.0,-999.0,46,0.00,n/a,n/a,-99.99,Henriksen +1-Wire,2013-04-27 02:44:00,
2013-04-26 22:59:00,56.7,36.8,30.39,North,-999,-999.0,-999.0,46,0.00,n/a,n/a,-99.99,Henriksen +1-Wire,2013-04-27 02:59:00,
2013-04-26 23:14:00,56.5,37.3,30.39,North,-999,-999.0,-999.0,48,0.00,n/a,n/a,-99.99,Henriksen +1-Wire,2013-04-27 03:14:00,
2013-04-26 23:29:00,56.1,37.8,30.40,North,-999,-999.0,-999.0,49,0.00,n/a,n/a,-99.99,Henriksen +1-Wire,2013-04-27 03:29:00,
2013-04-26 23:44:00,55.9,37.9,30.41,North,-999,-999.0,-999.0,50,0.00,n/a,n/a,-99.99,Henriksen +1-Wire,2013-04-27 03:44:00,
2013-04-26 23:59:00,55.8,38.1,30.42,North,-999,-999.0,-999.0,51,0.00,n/a,n/a,-99.99,Henriksen +1-Wire,2013-04-27 03:59:00,